Newtonmore, United Kingdom
Current Conditions -  °F | °C
As of 8:20 AM on Thursday 29 Jan 2015 (Local Time) from EGPE Reporting Station
Rain Showers Rain Showers  
Wind Chill: 21°   Ceiling: Unl
Heat Index: 32°   Visibility: 6mi
Dew Point: 30°   Wind: 16mph
Humidity: 93%   Direction: 240°WSW
Pressure: 28.7"   Gusts: NA
Location:  57.02°N, 4.28°W
Report Text: EGPE 290820Z 24014KT 9999 7000NW VCSH FEW005 FEW015CB SCT041 00/M01 Q0972 R/SNOCLO
Loading
Personal Weather Stations






























Interactive Weather Map New forecast layout! Learn more

10-Day Weather Forecast

Advertisements
Track Severe Weather on mobile